Time;durP1;ratioP1;P1;durP2;ratioP2;P2;SDS_P1;SDS_P2;PMS_P1;PMS_P2;Temp;Humidity;BMP_temperature;BMP_pressure;BME280_temperature;BME280_humidity;BME280_pressure;Samples;Min_cycle;Max_cycle;Signal;HPM_P1;HPM_P2
2023/10/12 00:02:04;;;;;;;12.82;3.92;;;19.90;98.20;;;;;;5062936;28;20028;-72
2023/10/12 00:04:43;;;;;;;15.63;4.43;;;19.90;98.20;;;;;;5058542;28;20120;-72
2023/10/12 00:07:15;;;;;;;13.15;4.68;;;19.80;98.10;;;;;;5064561;28;20021;-72
2023/10/12 00:10:02;;;;;;;10.23;3.13;;;19.90;98.10;;;;;;5055161;28;20033;-73
2023/10/12 00:12:32;;;;;;;12.60;3.67;;;19.80;98.20;;;;;;5061626;28;20024;-72
2023/10/12 00:15:02;;;;;;;11.38;3.70;;;19.90;98.20;;;;;;5056871;28;20146;-71
2023/10/12 00:17:27;;;;;;;13.48;3.70;;;19.90;98.10;;;;;;5053077;28;20033;-72
2023/10/12 00:19:53;;;;;;;8.85;3.78;;;19.80;98.20;;;;;;5054684;28;20029;-72
2023/10/12 00:22:19;;;;;;;13.02;4.10;;;19.80;98.00;;;;;;5053620;28;20024;-71
2023/10/12 00:24:45;;;;;;;12.27;3.97;;;19.80;98.10;;;;;;5035429;28;20718;-72
2023/10/12 00:27:14;;;;;;;12.50;4.20;;;19.80;98.20;;;;;;5059119;28;20487;-72
2023/10/12 00:29:45;;;;;;;12.38;4.55;;;19.80;98.20;;;;;;5060814;28;20086;-72
2023/10/12 00:32:13;;;;;;;11.60;4.53;;;19.80;98.30;;;;;;5063702;28;20111;-72
2023/10/12 00:34:45;;;;;;;12.75;4.00;;;19.80;98.50;;;;;;5057641;28;20403;-72
2023/10/12 00:37:11;;;;;;;10.85;4.35;;;19.70;98.70;;;;;;5057965;28;20017;-72
2023/10/12 00:42:18;;;;;;;13.75;4.43;;;19.70;98.90;;;;;;5063377;28;20086;-72
2023/10/12 00:44:47;;;;;;;12.80;5.03;;;19.70;99.00;;;;;;5058019;28;20475;-72
2023/10/12 00:47:19;;;;;;;14.30;4.65;;;19.70;99.10;;;;;;5061416;28;20075;-72
2023/10/12 00:49:48;;;;;;;13.23;4.65;;;19.70;99.20;;;;;;5055259;28;20387;-72
2023/10/12 00:52:25;;;;;;;13.45;4.82;;;19.60;99.70;;;;;;5059691;28;20349;-72
2023/10/12 00:54:56;;;;;;;11.65;4.22;;;19.60;99.90;;;;;;5061274;28;20459;-72
2023/10/12 00:57:23;;;;;;;17.52;5.03;;;19.60;99.90;;;;;;5071481;28;20035;-72
2023/10/12 00:59:52;;;;;;;12.05;4.60;;;19.60;99.90;;;;;;5063739;28;20401;-72
2023/10/12 01:02:24;;;;;;;16.77;4.63;;;19.50;99.90;;;;;;5061231;28;20021;-72
2023/10/12 01:04:53;;;;;;;11.40;4.70;;;19.50;99.90;;;;;;5057837;28;20028;-72
2023/10/12 01:07:34;;;;;;;14.63;5.53;;;19.50;99.90;;;;;;5057373;28;20021;-72
2023/10/12 01:10:06;;;;;;;11.65;4.95;;;19.50;99.90;;;;;;5054918;28;20028;-73
2023/10/12 01:12:34;;;;;;;12.23;5.20;;;19.40;99.90;;;;;;5062728;28;20021;-72
2023/10/12 01:15:11;;;;;;;14.38;5.43;;;19.30;99.90;;;;;;5063244;28;20081;-72
2023/10/12 01:17:37;;;;;;;16.10;5.63;;;19.30;99.90;;;;;;5070349;28;20498;-72
2023/10/12 01:20:16;;;;;;;14.73;5.40;;;19.30;99.90;;;;;;5058259;28;20036;-72
2023/10/12 01:22:42;;;;;;;16.67;5.47;;;19.20;99.90;;;;;;5059372;28;20029;-72
2023/10/12 01:25:12;;;;;;;16.13;5.78;;;19.20;99.90;;;;;;5062941;28;20047;-73
2023/10/12 01:27:44;;;;;;;14.82;5.40;;;19.10;99.90;;;;;;5065825;28;20116;-72
2023/10/12 01:30:15;;;;;;;11.07;6.15;;;19.00;99.90;;;;;;5066882;28;20048;-73
2023/10/12 01:32:41;;;;;;;14.20;5.47;;;19.00;99.90;;;;;;5064409;28;20020;-72
2023/10/12 01:35:10;;;;;;;13.48;6.05;;;19.00;99.90;;;;;;5060655;28;20372;-72
2023/10/12 01:37:47;;;;;;;17.75;6.25;;;19.00;99.90;;;;;;5063726;28;20029;-72
2023/10/12 01:40:15;;;;;;;14.88;6.30;;;18.90;99.90;;;;;;5060107;28;20086;-72
2023/10/12 01:42:49;;;;;;;15.20;6.45;;;18.80;99.90;;;;;;5063743;28;20021;-73
2023/10/12 01:47:55;;;;;;;15.73;6.03;;;18.70;99.90;;;;;;5069760;28;20111;-73
2023/10/12 01:50:21;;;;;;;14.82;6.72;;;18.60;99.90;;;;;;5059480;28;20031;-72
2023/10/12 01:52:48;;;;;;;17.77;6.88;;;18.70;99.90;;;;;;5057539;28;20040;-72
2023/10/12 01:55:28;;;;;;;12.57;6.72;;;18.60;99.90;;;;;;5058804;28;20536;-72
2023/10/12 01:57:54;;;;;;;18.10;7.55;;;18.40;99.90;;;;;;5064222;28;20052;-72
2023/10/12 02:00:41;;;;;;;17.23;7.32;;;18.40;99.90;;;;;;5062060;28;20027;-72
2023/10/12 02:03:31;;;;;;;24.17;7.40;;;18.40;99.90;;;;;;5065238;28;20043;-72
2023/10/12 02:06:01;;;;;;;16.23;6.20;;;18.40;99.90;;;;;;5057666;28;20057;-72
2023/10/12 02:08:45;;;;;;;14.27;7.10;;;18.30;99.90;;;;;;5059318;28;20028;-72
2023/10/12 02:11:26;;;;;;;16.08;7.53;;;18.20;99.90;;;;;;5057610;28;20032;-71
2023/10/12 02:13:57;;;;;;;11.13;6.10;;;18.10;99.90;;;;;;5064908;28;20032;-72
2023/10/12 02:16:32;;;;;;;15.15;6.70;;;18.20;99.90;;;;;;5047612;28;20025;-72
2023/10/12 02:19:19;;;;;;;19.08;7.05;;;18.10;99.90;;;;;;5059965;28;20032;-73
2023/10/12 02:21:46;;;;;;;19.38;7.03;;;18.10;99.90;;;;;;5064934;28;20059;-71
2023/10/12 02:24:13;;;;;;;15.27;7.03;;;18.00;99.90;;;;;;5057174;28;20106;-71
2023/10/12 02:29:18;;;;;;;12.38;6.25;;;18.00;99.90;;;;;;5061485;28;20052;-72
2023/10/12 02:34:18;;;;;;;15.52;6.63;;;17.90;99.90;;;;;;5062438;28;20028;-72
2023/10/12 02:37:00;;;;;;;12.70;6.03;;;18.00;99.90;;;;;;5057176;28;20648;-72
2023/10/12 02:39:39;;;;;;;17.88;7.13;;;18.00;99.90;;;;;;5058883;28;20090;-72
2023/10/12 02:42:17;;;;;;;12.55;6.25;;;18.00;99.90;;;;;;5065182;28;20043;-72
2023/10/12 02:47:21;;;;;;;18.02;6.60;;;17.90;99.90;;;;;;5059082;28;20233;-72
2023/10/12 02:49:47;;;;;;;17.10;6.80;;;18.00;99.90;;;;;;5067958;28;20025;-72
2023/10/12 02:52:14;;;;;;;14.43;6.88;;;18.00;99.90;;;;;;5061975;28;20019;-72
2023/10/12 02:54:50;;;;;;;18.38;7.43;;;17.90;99.90;;;;;;5061866;28;20349;-72
2023/10/12 02:57:21;;;;;;;16.05;7.68;;;17.80;99.90;;;;;;5060497;28;20490;-72
2023/10/12 02:59:49;;;;;;;16.88;7.03;;;17.80;99.90;;;;;;5058611;28;20024;-73
2023/10/12 03:02:32;;;;;;;;;;;17.80;99.90;;;;;;5056202;28;20024;-72
2023/10/12 03:04:59;;;;;;;22.20;7.68;;;17.70;99.90;;;;;;5063909;28;20366;-72
2023/10/12 03:07:27;;;;;;;19.33;8.40;;;17.60;99.90;;;;;;5056934;28;20043;-72
2023/10/12 03:09:58;;;;;;;17.75;7.70;;;17.60;99.90;;;;;;5061262;28;20071;-72
2023/10/12 03:12:25;;;;;;;18.45;7.20;;;17.70;99.90;;;;;;5059167;28;20025;-71
2023/10/12 03:14:51;;;;;;;20.58;8.32;;;17.70;99.90;;;;;;5059211;28;20032;-72
2023/10/12 03:17:24;;;;;;;19.00;8.52;;;17.60;99.90;;;;;;5054328;28;20063;-72
2023/10/12 03:19:55;;;;;;;16.73;7.97;;;17.60;99.90;;;;;;5059797;28;20633;-71
2023/10/12 03:22:35;;;;;;;21.65;9.73;;;17.50;99.90;;;;;;5058922;28;20406;-72
2023/10/12 03:26:05;;;;;;;21.08;8.95;;;17.50;99.90;;;;;;5060766;28;20036;-71
2023/10/12 03:28:00;;;;;;;20.40;8.85;;;17.50;99.90;;;;;;5042562;28;20168;-69
2023/10/12 03:30:34;;;;;;;18.80;9.13;;;17.40;99.90;;;;;;5060010;28;20390;-72
2023/10/12 03:33:03;;;;;;;17.50;8.70;;;17.30;99.90;;;;;;5056272;28;20685;-73
2023/10/12 03:35:34;;;;;;;27.88;9.27;;;17.20;99.90;;;;;;5061474;28;20021;-72
2023/10/12 03:38:12;;;;;;;20.10;9.23;;;17.30;99.90;;;;;;5058979;28;20024;-72
2023/10/12 03:40:52;;;;;;;18.77;8.75;;;17.40;99.90;;;;;;5060363;28;20059;-72
2023/10/12 03:43:26;;;;;;;20.15;9.00;;;17.40;99.90;;;;;;5053940;28;20075;-72
2023/10/12 03:53:45;;;;;;;18.45;9.18;;;17.10;99.90;;;;;;5059868;28;20029;-72
2023/10/12 03:56:14;;;;;;;19.73;10.02;;;17.10;99.90;;;;;;5060167;28;20028;-72
2023/10/12 03:58:46;;;;;;;27.30;10.05;;;17.20;99.90;;;;;;5057066;28;20086;-72
2023/10/12 04:01:35;;;;;;;22.17;10.98;;;17.20;99.90;;;;;;5058152;28;20020;-72
2023/10/12 04:09:31;;;;;;;16.48;8.40;;;17.20;99.90;;;;;;5058505;28;20024;-72
2023/10/12 04:14:52;;;;;;;16.02;8.85;;;17.30;99.90;;;;;;5059081;28;20036;-72
2023/10/12 04:30:43;;;;;;;17.30;8.20;;;17.30;99.90;;;;;;5059832;28;20167;-72
2023/10/12 04:36:01;;;;;;;15.00;8.05;;;17.10;99.90;;;;;;5062631;28;20021;-72
2023/10/12 04:41:22;;;;;;;16.63;8.45;;;17.10;99.90;;;;;;5062543;28;20032;-72
2023/10/12 04:43:31;;;;;;;20.75;8.55;;;17.10;99.90;;;;;;5053468;28;20025;-72
2023/10/12 04:46:26;;;;;;;16.83;7.05;;;17.10;99.90;;;;;;5060265;28;20032;-72
2023/10/12 04:49:00;;;;;;;17.25;8.70;;;17.00;99.90;;;;;;5064120;28;20043;-72
2023/10/12 04:51:30;;;;;;;24.75;9.48;;;17.10;99.90;;;;;;5058856;28;20069;-72
2023/10/12 04:54:16;;;;;;;17.33;9.02;;;17.00;99.90;;;;;;5062899;28;20028;-72
2023/10/12 04:56:56;;;;;;;15.55;7.60;;;17.10;99.90;;;;;;5062736;28;20036;-72
2023/10/12 04:59:27;;;;;;;17.02;8.75;;;17.10;99.90;;;;;;5059820;28;20025;-73
2023/10/12 05:07:53;;;;;;;20.45;9.70;;;16.90;99.90;;;;;;5057376;28;20031;-73
2023/10/12 05:09:54;;;;;;;19.50;9.48;;;16.90;99.90;;;;;;5049740;28;20093;-72
2023/10/12 05:12:25;;;;;;;16.15;9.35;;;16.90;99.90;;;;;;5054046;28;20359;-72
2023/10/12 05:14:55;;;;;;;23.23;9.98;;;16.90;99.90;;;;;;5057547;28;20552;-72
2023/10/12 05:17:24;;;;;;;21.80;10.10;;;17.00;99.90;;;;;;5059154;28;20025;-73
2023/10/12 05:19:53;;;;;;;19.48;10.32;;;16.90;99.90;;;;;;5052729;28;20056;-72
2023/10/12 05:22:22;;;;;;;19.33;10.45;;;16.90;99.90;;;;;;5051801;28;20432;-66
2023/10/12 05:24:51;;;;;;;20.58;10.48;;;16.90;99.90;;;;;;5056889;28;20043;-66
2023/10/12 05:27:23;;;;;;;24.88;11.05;;;16.80;99.90;;;;;;5048913;28;20102;-66
2023/10/12 05:29:52;;;;;;;20.40;10.32;;;16.80;99.90;;;;;;5053326;28;20021;-67
2023/10/12 05:32:36;;;;;;;19.58;10.68;;;16.80;99.90;;;;;;5055040;28;20037;-66
2023/10/12 05:35:05;;;;;;;19.27;10.35;;;16.90;99.90;;;;;;5062113;28;20094;-66
2023/10/12 05:37:38;;;;;;;23.17;10.98;;;17.00;99.90;;;;;;5055410;28;20021;-67
2023/10/12 05:40:13;;;;;;;11.00;5.10;;;16.90;99.90;;;;;;5057491;28;20519;-66
2023/10/12 05:42:39;;;;;;;9.25;1.67;;;16.90;99.90;;;;;;5064301;28;20494;-67
2023/10/12 05:45:22;;;;;;;2.50;1.00;;;16.70;99.90;;;;;;5055746;28;20083;-66
2023/10/12 05:47:52;;;;;;;2.28;0.85;;;16.70;99.90;;;;;;5057347;28;20033;-66
2023/10/12 05:50:23;;;;;;;2.60;0.73;;;16.50;99.90;;;;;;5057748;28;20497;-66
2023/10/12 05:52:51;;;;;;;2.90;0.80;;;16.40;99.90;;;;;;5055458;28;20418;-66
2023/10/12 05:55:23;;;;;;;2.25;0.70;;;16.40;99.90;;;;;;5059972;28;20530;-66
2023/10/12 05:57:49;;;;;;;3.38;0.68;;;16.30;99.90;;;;;;5057833;28;20951;-66
2023/10/12 06:00:41;;;;;;;2.22;0.75;;;16.30;99.90;;;;;;5061568;28;20025;-66
2023/10/12 06:03:05;;;;;;;2.53;0.90;;;16.40;99.90;;;;;;5059357;28;20484;-66
2023/10/12 06:05:33;;;;;;;2.42;0.80;;;16.30;99.90;;;;;;5075238;28;20040;-66
2023/10/12 06:08:04;;;;;;;;;;;16.40;99.90;;;;;;5058491;28;20090;-66
2023/10/12 06:10:40;;;;;;;4.20;0.85;;;16.30;99.90;;;;;;5063702;28;19928;-66
2023/10/12 06:13:10;;;;;;;2.92;1.02;;;16.20;99.90;;;;;;5057204;28;20553;-66
2023/10/12 06:15:42;;;;;;;4.50;1.40;;;16.20;99.90;;;;;;5053877;28;20817;-66
2023/10/12 06:18:10;;;;;;;3.38;0.90;;;16.30;99.90;;;;;;5051091;28;20075;-66
2023/10/12 06:20:42;;;;;;;3.47;0.75;;;16.20;99.90;;;;;;5058879;28;20134;-66
2023/10/12 06:23:13;;;;;;;8.15;1.30;;;16.10;99.90;;;;;;5055176;28;20445;-66
2023/10/12 06:25:43;;;;;;;3.45;0.80;;;16.10;99.90;;;;;;5056415;28;20044;-66
2023/10/12 06:28:17;;;;;;;3.28;0.63;;;16.10;99.90;;;;;;5058315;28;20375;-66
2023/10/12 06:30:46;;;;;;;3.10;1.38;;;16.10;99.90;;;;;;5058830;28;20479;-66
2023/10/12 06:33:15;;;;;;;5.97;1.55;;;16.00;99.90;;;;;;5058654;28;20070;-66
2023/10/12 06:35:58;;;;;;;5.00;1.00;;;16.00;99.90;;;;;;5056380;28;20025;-66
2023/10/12 06:41:29;;;;;;;9.10;1.40;;;16.00;99.90;;;;;;5053830;28;20040;-66
2023/10/12 06:44:13;;;;;;;7.53;1.10;;;16.10;99.90;;;;;;5060503;28;20042;-66
2023/10/12 06:46:46;;;;;;;3.75;1.02;;;16.10;99.90;;;;;;5057143;28;20043;-66
2023/10/12 06:49:18;;;;;;;15.25;4.50;;;16.10;99.90;;;;;;5056432;28;20029;-66
2023/10/12 06:51:53;;;;;;;4.30;1.38;;;16.20;99.90;;;;;;5061318;28;20547;-67
2023/10/12 06:54:31;;;;;;;5.00;1.35;;;16.10;99.90;;;;;;5061552;28;20047;-67
2023/10/12 06:57:29;;;;;;;11.45;2.10;;;16.00;99.90;;;;;;5052354;28;20116;-67
2023/10/12 06:59:59;;;;;;;9.52;1.67;;;16.00;99.90;;;;;;5059317;28;20036;-66
2023/10/12 07:02:30;;;;;;;6.63;1.10;;;16.00;99.90;;;;;;5058971;28;20670;-67
2023/10/12 07:04:56;;;;;;;4.78;1.30;;;15.90;99.90;;;;;;5057068;28;20058;-66
2023/10/12 07:07:29;;;;;;;7.30;1.38;;;15.90;99.90;;;;;;5053873;28;20035;-67
2023/10/12 07:12:50;;;;;;;5.22;1.30;;;15.70;99.90;;;;;;5063456;28;20024;-66
2023/10/12 07:15:21;;;;;;;5.07;1.40;;;15.80;99.90;;;;;;5054849;28;20031;-67
2023/10/12 07:17:50;;;;;;;6.28;1.77;;;15.80;99.90;;;;;;5057001;28;20032;-66
2023/10/12 07:20:42;;;;;;;4.90;1.33;;;15.70;99.90;;;;;;5057091;28;20031;-67
2023/10/12 07:23:17;;;;;;;5.20;1.25;;;15.60;99.90;;;;;;5060980;28;20068;-67
2023/10/12 07:25:48;;;;;;;9.02;1.40;;;15.70;99.90;;;;;;5039488;28;20035;-67
2023/10/12 07:28:33;;;;;;;8.32;1.85;;;15.80;99.90;;;;;;5063385;28;20067;-66
2023/10/12 07:31:23;;;;;;;7.03;1.20;;;15.90;99.90;;;;;;5059186;28;20428;-66
2023/10/12 07:42:01;;;;;;;12.90;3.33;;;15.90;99.90;;;;;;5054180;28;20139;-67
2023/10/12 07:44:29;;;;;;;5.25;1.75;;;15.80;99.90;;;;;;5062031;28;20243;-67
2023/10/12 07:47:03;;;;;;;6.15;1.73;;;15.70;99.90;;;;;;5062396;28;20222;-67
2023/10/12 07:52:13;;;;;;;16.92;2.58;;;15.70;99.90;;;;;;5058093;28;20029;-67
2023/10/12 07:57:29;;;;;;;9.60;1.20;;;15.80;99.90;;;;;;5061096;28;20024;-67
2023/10/12 08:13:15;;;;;;;12.70;3.22;;;15.70;99.90;;;;;;5056934;28;20024;-66
2023/10/12 08:23:48;;;;;;;8.95;1.75;;;15.60;99.90;;;;;;5066015;28;20024;-66
2023/10/12 08:26:21;;;;;;;11.35;2.10;;;15.70;99.90;;;;;;5052745;28;20024;-66
2023/10/12 08:28:55;;;;;;;15.50;2.20;;;15.60;99.90;;;;;;5063105;28;20135;-66
2023/10/12 08:31:27;;;;;;;16.02;2.03;;;15.70;99.90;;;;;;5055758;28;20100;-67
2023/10/12 08:34:13;;;;;;;12.30;1.95;;;15.60;99.90;;;;;;5062059;28;20024;-66
2023/10/12 08:37:17;;;;;;;10.73;1.55;;;15.60;99.90;;;;;;5059029;28;20036;-67
2023/10/12 08:39:38;;;;;;;9.00;1.48;;;15.60;99.90;;;;;;5061610;28;20028;-67
2023/10/12 08:44:51;;;;;;;8.73;2.38;;;15.50;99.90;;;;;;5058640;28;20101;-65
2023/10/12 08:49:53;;;;;;;12.13;2.55;;;15.60;99.90;;;;;;5054246;28;20128;-64
2023/10/12 08:52:28;;;;;;;17.23;1.77;;;15.60;99.90;;;;;;5072203;28;20382;-65
2023/10/12 08:58:01;;;;;;;10.88;2.00;;;15.70;99.90;;;;;;5061610;28;20032;-65
2023/10/12 09:03:03;;;;;;;8.88;2.38;;;15.70;99.90;;;;;;5050791;28;20025;-66
2023/10/12 09:05:30;;;;;;;15.85;1.88;;;15.70;99.90;;;;;;5058670;28;20040;-65
2023/10/12 09:10:51;;;;;;;13.30;3.00;;;15.80;99.90;;;;;;5055298;28;20024;-65
2023/10/12 09:13:25;;;;;;;12.90;2.45;;;15.80;99.90;;;;;;5053094;28;20526;-64
2023/10/12 09:15:55;;;;;;;10.32;1.92;;;15.80;99.90;;;;;;5057467;28;20620;-65
2023/10/12 09:18:26;;;;;;;16.15;2.25;;;15.80;99.90;;;;;;5052270;28;20028;-65
2023/10/12 09:21:04;;;;;;;13.93;3.20;;;15.80;99.90;;;;;;5057499;28;20039;-65
2023/10/12 09:31:13;;;;;;;14.27;2.67;;;15.70;99.90;;;;;;5053766;28;20029;-65
2023/10/12 09:33:54;;;;;;;10.32;1.85;;;15.70;99.90;;;;;;5059750;28;20075;-65
2023/10/12 09:36:21;;;;;;;11.63;2.25;;;15.80;99.90;;;;;;5059446;28;20714;-65
2023/10/12 09:38:49;;;;;;;10.82;2.30;;;15.80;99.90;;;;;;5059879;28;20070;-65
2023/10/12 09:41:17;;;;;;;11.23;2.72;;;15.80;99.90;;;;;;5062682;28;20037;-65
2023/10/12 09:43:45;;;;;;;10.85;2.50;;;15.70;99.90;;;;;;5061071;28;20016;-65
2023/10/12 09:46:17;;;;;;;13.30;2.50;;;15.70;99.90;;;;;;5060120;28;20040;-65
2023/10/12 09:48:44;;;;;;;10.93;2.80;;;15.80;99.90;;;;;;5056635;28;20025;-65
2023/10/12 09:51:20;;;;;;;10.80;2.88;;;15.80;99.90;;;;;;5062485;28;20074;-65
2023/10/12 09:53:57;;;;;;;14.43;2.63;;;16.00;99.90;;;;;;5060894;28;20032;-65
2023/10/12 09:56:34;;;;;;;7.47;2.05;;;16.10;99.90;;;;;;5062841;28;20063;-65
2023/10/12 09:59:23;;;;;;;27.90;3.65;;;16.20;99.90;;;;;;5058565;28;20558;-65
2023/10/12 10:01:49;;;;;;;11.48;2.67;;;16.20;99.90;;;;;;5055711;28;20098;-65
2023/10/12 10:07:15;;;;;;;20.80;2.40;;;16.40;99.90;;;;;;5064075;28;20120;-65
2023/10/12 10:09:56;;;;;;;12.63;2.35;;;16.60;99.90;;;;;;5073735;28;20040;-64
2023/10/12 10:12:23;;;;;;;16.83;2.58;;;16.60;99.90;;;;;;5057711;28;20032;-64
2023/10/12 10:14:57;;;;;;;13.65;2.63;;;16.60;99.90;;;;;;5061955;28;20177;-64
2023/10/12 10:17:46;;;;;;;15.40;2.78;;;16.60;99.90;;;;;;5056275;28;20081;-64
2023/10/12 10:23:01;;;;;;;18.80;2.60;;;16.60;99.90;;;;;;5026751;22;20041;-64
2023/10/12 10:25:33;;;;;;;10.00;1.65;;;16.60;99.90;;;;;;5030163;28;20055;-64
2023/10/12 10:28:10;;;;;;;9.80;2.15;;;16.60;99.90;;;;;;5029809;28;20037;-64
2023/10/12 10:30:49;;;;;;;7.00;2.05;;;16.70;99.90;;;;;;5036644;28;20365;-64
2023/10/12 10:33:22;;;;;;;17.05;2.58;;;16.80;99.90;;;;;;5030220;28;20109;-64
2023/10/12 10:36:10;;;;;;;7.22;1.90;;;16.70;99.90;;;;;;5030362;28;20029;-64
2023/10/12 10:38:42;;;;;;;;;;;16.70;99.90;;;;;;5037319;28;20067;-64
2023/10/12 10:41:08;;;;;;;12.27;1.65;;;16.70;99.90;;;;;;5034794;28;19916;-64
2023/10/12 10:43:40;;;;;;;8.35;1.73;;;16.70;99.90;;;;;;5031495;28;20036;-64
2023/10/12 10:46:09;;;;;;;13.07;2.30;;;16.80;99.90;;;;;;5029001;28;20029;-64
2023/10/12 10:48:36;;;;;;;13.88;2.33;;;16.70;99.90;;;;;;5040278;28;20040;-65
2023/10/12 10:51:07;;;;;;;7.63;1.60;;;16.80;99.90;;;;;;5032671;28;20021;-64
2023/10/12 10:53:36;;;;;;;11.43;1.90;;;16.70;99.90;;;;;;5031270;28;20025;-64
2023/10/12 10:56:13;;;;;;;11.90;2.30;;;16.60;99.90;;;;;;5024096;28;20053;-64
2023/10/12 10:58:39;;;;;;;10.05;1.67;;;16.70;99.90;;;;;;5025991;28;20061;-65
2023/10/12 11:01:12;;;;;;;9.77;1.65;;;16.80;99.90;;;;;;5029014;28;20487;-64
2023/10/12 11:03:42;;;;;;;6.97;2.20;;;16.90;99.90;;;;;;5026213;28;20129;-65
2023/10/12 11:06:21;;;;;;;9.95;2.17;;;16.80;99.90;;;;;;5006831;28;20037;-64
2023/10/12 11:09:06;;;;;;;9.93;2.05;;;16.90;99.90;;;;;;5030743;28;20063;-64
2023/10/12 11:11:44;;;;;;;10.65;1.33;;;16.80;99.90;;;;;;5029483;28;20120;-64
2023/10/12 11:14:12;;;;;;;16.80;2.20;;;16.90;99.90;;;;;;5027998;28;20021;-65
2023/10/12 11:16:43;;;;;;;11.83;1.93;;;16.90;99.90;;;;;;5031413;28;20021;-65
2023/10/12 11:19:09;;;;;;;12.05;1.45;;;16.80;99.90;;;;;;5026164;28;20454;-64
2023/10/12 11:21:35;;;;;;;14.88;2.08;;;16.80;99.90;;;;;;5016531;28;20144;-64
2023/10/12 11:24:03;;;;;;;11.90;2.10;;;16.80;99.90;;;;;;5032321;28;20483;-65
2023/10/12 11:26:29;;;;;;;12.77;1.92;;;16.80;99.90;;;;;;5036969;28;20053;-65
2023/10/12 11:29:04;;;;;;;14.75;2.03;;;16.70;99.90;;;;;;5032416;28;20518;-65
2023/10/12 11:31:32;;;;;;;11.32;1.92;;;16.80;99.90;;;;;;5032288;28;20029;-65
2023/10/12 11:33:59;;;;;;;11.85;1.83;;;16.80;99.90;;;;;;5013127;28;20064;-65
2023/10/12 11:36:28;;;;;;;13.35;2.22;;;16.70;99.90;;;;;;5037597;28;20036;-65
2023/10/12 11:39:01;;;;;;;12.32;2.10;;;16.70;99.90;;;;;;5027767;28;20423;-65
2023/10/12 11:41:27;;;;;;;15.77;2.13;;;16.70;99.90;;;;;;5034498;28;20040;-65
2023/10/12 11:43:54;;;;;;;12.07;3.20;;;16.60;99.90;;;;;;5034490;28;20024;-65
2023/10/12 11:46:21;;;;;;;12.52;1.88;;;16.70;99.90;;;;;;5038942;28;20048;-65
2023/10/12 11:49:08;;;;;;;8.87;1.83;;;16.60;99.90;;;;;;5036706;28;20497;-65
2023/10/12 11:51:40;;;;;;;15.32;2.28;;;16.60;99.90;;;;;;5027348;28;20032;-65
2023/10/12 11:54:07;;;;;;;10.32;1.95;;;16.70;99.90;;;;;;5024446;28;20419;-65
2023/10/12 11:56:43;;;;;;;12.77;2.03;;;16.70;99.90;;;;;;5030913;28;20980;-65
2023/10/12 11:59:22;;;;;;;8.43;2.00;;;16.70;99.90;;;;;;5020723;28;20057;-65
2023/10/12 12:01:56;;;;;;;11.20;2.15;;;16.60;99.90;;;;;;5023694;28;20052;-63
2023/10/12 12:04:32;;;;;;;19.33;2.72;;;16.70;99.90;;;;;;5030629;28;20021;-65
2023/10/12 12:06:59;;;;;;;10.23;2.28;;;16.70;99.90;;;;;;5026042;28;20029;-65
2023/10/12 12:09:27;;;;;;;17.00;2.83;;;16.50;99.90;;;;;;5028975;28;20032;-64
2023/10/12 12:11:54;;;;;;;18.10;2.45;;;16.50;99.90;;;;;;5023973;28;20032;-64
2023/10/12 12:14:20;;;;;;;20.77;3.63;;;16.60;99.90;;;;;;5021402;28;20037;-64
2023/10/12 12:16:46;;;;;;;10.32;2.88;;;16.60;99.90;;;;;;5029817;28;20040;-64
2023/10/12 12:19:19;;;;;;;12.70;2.53;;;16.60;99.90;;;;;;5029695;28;20057;-64
2023/10/12 12:21:45;;;;;;;6.80;2.65;;;16.60;99.90;;;;;;5027884;28;20041;-64
2023/10/12 12:26:51;;;;;;;13.60;2.20;;;16.60;99.90;;;;;;5025561;28;21797;-64
2023/10/12 12:29:22;;;;;;;19.48;3.08;;;16.50;99.90;;;;;;5021342;28;20025;-64
2023/10/12 12:31:48;;;;;;;9.80;2.50;;;16.60;99.90;;;;;;5020466;28;20033;-65
2023/10/12 12:34:34;;;;;;;15.43;3.38;;;16.50;99.90;;;;;;5025381;28;20014;-65
2023/10/12 12:37:05;;;;;;;13.35;2.40;;;16.60;99.90;;;;;;5023387;28;20030;-64
2023/10/12 12:39:34;;;;;;;12.73;2.83;;;16.50;99.90;;;;;;5024029;28;20040;-65
2023/10/12 12:42:10;;;;;;;10.63;2.25;;;16.50;99.90;;;;;;5026814;28;20029;-65
2023/10/12 12:44:36;;;;;;;13.23;2.53;;;16.50;99.90;;;;;;5021191;28;20033;-64
2023/10/12 12:47:06;;;;;;;12.30;2.25;;;16.40;99.90;;;;;;5025592;28;20021;-65
2023/10/12 12:49:32;;;;;;;10.43;3.03;;;16.50;99.90;;;;;;5030737;28;20113;-64
2023/10/12 12:51:58;;;;;;;9.38;2.40;;;16.40;99.90;;;;;;5022463;28;20053;-65
2023/10/12 12:54:24;;;;;;;12.70;2.60;;;16.40;99.90;;;;;;5029480;28;20056;-65
2023/10/12 12:56:53;;;;;;;10.48;2.58;;;16.30;99.90;;;;;;5023482;28;20025;-65
2023/10/12 12:59:23;;;;;;;13.30;3.15;;;16.40;99.90;;;;;;5028068;28;20531;-65
2023/10/12 13:01:53;;;;;;;12.63;2.22;;;16.40;99.90;;;;;;5032553;28;20506;-65
2023/10/12 13:04:21;;;;;;;13.60;2.55;;;16.40;99.90;;;;;;5028841;28;20030;-64
2023/10/12 13:06:48;;;;;;;;;;;16.30;99.90;;;;;;5030183;28;20033;-65
2023/10/12 13:09:33;;;;;;;14.73;3.20;;;16.30;99.90;;;;;;5029225;28;19940;-64
2023/10/12 13:11:59;;;;;;;10.60;3.17;;;16.30;99.90;;;;;;5035877;28;20032;-65
2023/10/12 13:14:29;;;;;;;14.45;3.63;;;16.30;99.90;;;;;;5029938;28;20029;-65
2023/10/12 13:16:56;;;;;;;11.77;2.30;;;16.30;99.90;;;;;;5039123;28;20435;-64
2023/10/12 13:19:29;;;;;;;11.48;2.63;;;16.30;99.90;;;;;;5032346;28;20032;-65
2023/10/12 13:21:57;;;;;;;9.38;2.60;;;16.30;99.90;;;;;;5030858;28;20029;-65
2023/10/12 13:24:23;;;;;;;13.48;2.60;;;16.30;99.90;;;;;;5029293;28;20041;-76
2023/10/12 13:26:48;;;;;;;11.10;2.15;;;16.30;99.90;;;;;;5021292;28;20030;-76
2023/10/12 13:29:14;;;;;;;10.75;1.92;;;16.20;99.90;;;;;;5023008;28;20021;-76
2023/10/12 13:31:40;;;;;;;13.93;2.55;;;16.30;99.90;;;;;;5031568;28;20029;-76
2023/10/12 13:34:10;;;;;;;12.32;2.35;;;16.30;99.90;;;;;;5014070;28;20295;-76
2023/10/12 13:36:39;;;;;;;7.47;2.38;;;16.30;99.90;;;;;;5029342;28;20084;-75
2023/10/12 13:39:09;;;;;;;8.63;2.25;;;16.20;99.90;;;;;;5029060;28;20028;-75
2023/10/12 13:41:35;;;;;;;6.60;2.13;;;16.30;99.90;;;;;;5032734;28;20025;-76
2023/10/12 13:44:05;;;;;;;19.25;4.05;;;16.30;99.90;;;;;;5026599;28;20568;-76
2023/10/12 13:46:32;;;;;;;16.05;3.40;;;16.20;99.90;;;;;;5028881;28;20022;-76
2023/10/12 13:48:57;;;;;;;13.63;2.25;;;16.30;99.90;;;;;;5030201;28;20048;-76
2023/10/12 13:51:31;;;;;;;9.77;2.67;;;16.30;99.90;;;;;;5016261;28;20017;-76
2023/10/12 13:53:57;;;;;;;7.28;2.13;;;16.20;99.90;;;;;;5034879;28;20030;-77
2023/10/12 13:56:26;;;;;;;9.68;2.17;;;16.30;99.90;;;;;;5029412;28;20479;-77
2023/10/12 13:59:00;;;;;;;11.57;2.50;;;16.30;99.90;;;;;;5031212;28;20021;-77
2023/10/12 14:01:32;;;;;;;11.70;2.55;;;16.20;99.90;;;;;;5033417;28;20307;-78
2023/10/12 14:04:00;;;;;;;9.30;2.42;;;16.20;99.90;;;;;;5027151;28;20040;-76
2023/10/12 14:06:27;;;;;;;7.40;2.50;;;16.20;99.90;;;;;;5024558;28;20025;-76
2023/10/12 14:08:54;;;;;;;7.88;1.98;;;16.20;99.90;;;;;;5031375;28;20155;-76
2023/10/12 14:11:20;;;;;;;7.68;2.45;;;16.20;99.90;;;;;;5033440;28;20112;-77
2023/10/12 14:13:47;;;;;;;17.27;3.08;;;16.20;99.90;;;;;;5012970;28;20021;-77
2023/10/12 14:16:14;;;;;;;11.18;2.83;;;16.20;99.90;;;;;;5030466;28;20033;-76
2023/10/12 14:18:43;;;;;;;7.38;2.00;;;16.20;99.90;;;;;;5027302;28;20365;-76
2023/10/12 14:21:15;;;;;;;10.23;2.53;;;16.30;99.90;;;;;;5027417;28;20052;-76
2023/10/12 14:23:45;;;;;;;8.90;2.33;;;16.20;99.90;;;;;;5036066;28;20071;-76
2023/10/12 14:26:22;;;;;;;9.38;2.42;;;16.20;99.90;;;;;;5031854;28;20022;-78
2023/10/12 14:28:50;;;;;;;9.95;2.25;;;16.30;99.90;;;;;;5032552;28;20074;-77
2023/10/12 14:31:16;;;;;;;6.45;2.17;;;16.30;99.90;;;;;;5012673;28;20049;-77
2023/10/12 14:33:42;;;;;;;7.30;2.35;;;16.30;99.90;;;;;;5024497;28;20033;-76
2023/10/12 14:36:09;;;;;;;16.95;2.58;;;16.30;99.90;;;;;;5033766;28;20117;-76
2023/10/12 14:38:34;;;;;;;12.85;2.78;;;16.30;99.90;;;;;;5013564;28;20379;-76
2023/10/12 14:41:00;;;;;;;12.95;3.30;;;16.30;99.90;;;;;;5027316;28;20044;-76
2023/10/12 14:43:30;;;;;;;11.23;2.53;;;16.30;99.90;;;;;;5029062;28;20090;-77
2023/10/12 14:45:56;;;;;;;8.90;2.38;;;16.40;99.90;;;;;;5027368;28;20029;-77
2023/10/12 14:48:22;;;;;;;7.30;2.38;;;16.30;99.90;;;;;;5028255;28;20148;-76
2023/10/12 14:51:12;;;;;;;12.75;2.90;;;16.20;99.90;;;;;;5029192;28;20032;-75
2023/10/12 14:53:39;;;;;;;12.85;2.88;;;16.30;99.90;;;;;;5023070;28;20017;-76
2023/10/12 14:56:06;;;;;;;10.10;2.55;;;16.30;99.90;;;;;;5033999;28;20017;-75
2023/10/12 14:58:32;;;;;;;6.55;2.47;;;16.30;99.90;;;;;;5032958;28;20101;-76
2023/10/12 15:00:58;;;;;;;9.23;2.25;;;16.30;99.90;;;;;;5029409;28;20197;-77
2023/10/12 15:03:26;;;;;;;14.18;2.63;;;16.30;99.90;;;;;;5010109;28;20087;-76
2023/10/12 15:05:55;;;;;;;11.95;2.92;;;16.30;99.90;;;;;;5025351;28;20026;-76
2023/10/12 15:08:25;;;;;;;9.55;2.85;;;16.20;99.90;;;;;;5026620;28;20559;-68